Time;durP1;ratioP1;P1;durP2;ratioP2;P2;SDS_P1;SDS_P2;PMS_P1;PMS_P2;Temp;Humidity;BMP_temperature;BMP_pressure;BME280_temperature;BME280_humidity;BME280_pressure;Samples;Min_cycle;Max_cycle;Signal;HPM_P1;HPM_P2
2023/07/18 00:00:37;;;;;;;8.37;3.80;;;13.70;99.90;;;;;;5073230;28;20464;-57
2023/07/18 00:03:06;;;;;;;8.17;4.67;;;13.70;99.90;;;;;;5073729;28;20444;-56
2023/07/18 00:05:33;;;;;;;4.30;3.90;;;13.60;99.90;;;;;;5073748;28;20614;-57
2023/07/18 00:08:00;;;;;;;4.77;3.57;;;13.60;99.90;;;;;;5073208;28;20514;-57
2023/07/18 00:10:26;;;;;;;5.90;3.53;;;13.60;99.90;;;;;;5072924;28;20462;-58
2023/07/18 00:12:53;;;;;;;7.10;4.60;;;13.60;99.90;;;;;;5073779;28;20446;-57
2023/07/18 00:15:21;;;;;;;6.97;3.87;;;13.60;99.90;;;;;;5073235;28;20448;-57
2023/07/18 00:17:48;;;;;;;10.30;4.13;;;13.60;99.90;;;;;;5072656;28;20566;-57
2023/07/18 00:20:18;;;;;;;8.53;3.97;;;13.60;99.90;;;;;;5072997;28;20469;-57
2023/07/18 00:22:48;;;;;;;5.77;3.07;;;13.60;99.90;;;;;;5072899;28;20958;-56
2023/07/18 00:25:16;;;;;;;5.60;4.57;;;13.60;99.90;;;;;;5072616;28;20445;-57
2023/07/18 00:27:43;;;;;;;4.40;4.00;;;13.70;99.90;;;;;;5075188;28;20444;-57
2023/07/18 00:30:12;;;;;;;6.93;3.97;;;13.70;99.90;;;;;;5076855;28;20467;-57
2023/07/18 00:32:39;;;;;;;6.90;4.63;;;13.70;99.90;;;;;;5076885;28;20450;-57
2023/07/18 00:35:07;;;;;;;6.27;3.80;;;13.70;99.90;;;;;;5076948;28;20457;-57
2023/07/18 00:37:36;;;;;;;5.13;3.83;;;13.70;99.90;;;;;;5077031;28;20474;-57
2023/07/18 00:40:10;;;;;;;8.17;3.73;;;13.70;99.90;;;;;;5091139;22;20538;-56
2023/07/18 00:42:36;;;;;;;7.90;4.00;;;13.70;99.90;;;;;;5058116;28;20452;-56
2023/07/18 00:45:05;;;;;;;5.53;3.63;;;13.70;99.90;;;;;;5057738;28;20439;-57
2023/07/18 00:47:32;;;;;;;6.20;3.70;;;13.70;99.90;;;;;;5057416;28;20432;-58
2023/07/18 00:49:59;;;;;;;6.50;4.00;;;13.70;99.90;;;;;;5057380;28;20474;-57
2023/07/18 00:52:26;;;;;;;5.43;3.37;;;13.80;99.90;;;;;;5057150;28;20449;-57
2023/07/18 00:54:54;;;;;;;5.17;3.50;;;13.80;99.90;;;;;;5056954;28;20448;-56
2023/07/18 00:57:21;;;;;;;4.50;3.23;;;13.80;99.90;;;;;;5056555;28;21062;-57
2023/07/18 00:59:48;;;;;;;4.17;3.30;;;13.80;99.90;;;;;;5056764;28;20458;-57
2023/07/18 01:02:15;;;;;;;8.20;4.30;;;13.80;99.90;;;;;;5056889;28;20443;-57
2023/07/18 01:04:42;;;;;;;5.60;4.10;;;13.80;99.90;;;;;;5056441;28;20517;-58
2023/07/18 01:07:09;;;;;;;8.47;4.37;;;13.70;99.90;;;;;;5056767;28;20449;-56
2023/07/18 01:09:35;;;;;;;5.97;4.53;;;13.70;99.90;;;;;;5056445;28;20515;-57
2023/07/18 01:12:04;;;;;;;5.50;3.57;;;13.70;99.90;;;;;;5056054;28;20448;-56
2023/07/18 01:14:31;;;;;;;6.60;4.20;;;13.70;99.90;;;;;;5056204;28;20444;-57
2023/07/18 01:16:58;;;;;;;6.07;3.60;;;13.60;99.90;;;;;;5056231;28;20507;-57
2023/07/18 01:19:24;;;;;;;9.63;4.20;;;13.60;99.90;;;;;;5055884;28;20979;-56
2023/07/18 02:41:32;;;;;;;6.10;4.40;;;13.20;99.90;;;;;;5054725;28;20423;-58
2023/07/18 02:43:59;;;;;;;6.67;4.70;;;13.20;99.90;;;;;;5054386;28;20524;-58
2023/07/18 02:46:26;;;;;;;8.87;4.80;;;13.20;99.90;;;;;;5054585;28;20459;-55
2023/07/18 02:48:52;;;;;;;5.40;4.00;;;13.20;99.90;;;;;;5054370;28;20440;-57
2023/07/18 02:51:19;;;;;;;6.80;4.93;;;13.10;99.90;;;;;;5053635;28;20440;-56
2023/07/18 02:53:46;;;;;;;7.27;4.97;;;13.10;99.90;;;;;;5054412;28;20439;-57
2023/07/18 02:56:13;;;;;;;9.90;4.77;;;13.10;99.90;;;;;;5053968;28;20853;-57
2023/07/18 02:58:41;;;;;;;7.77;4.30;;;13.00;99.90;;;;;;5054469;28;20517;-56
2023/07/18 03:01:08;;;;;;;6.07;4.53;;;13.00;99.90;;;;;;5054257;28;20957;-57
2023/07/18 03:03:38;;;;;;;6.43;4.50;;;13.00;99.90;;;;;;5054334;28;20494;-56
2023/07/18 03:06:05;;;;;;;7.33;4.53;;;13.00;99.90;;;;;;5054133;28;20486;-56
2023/07/18 03:08:32;;;;;;;8.83;4.90;;;13.00;99.90;;;;;;5054092;28;20962;-56
2023/07/18 03:11:01;;;;;;;11.70;5.60;;;13.00;99.90;;;;;;5053608;28;20817;-57
2023/07/18 03:13:28;;;;;;;5.70;4.60;;;13.00;99.90;;;;;;5053813;28;20457;-57
2023/07/18 03:15:56;;;;;;;12.43;5.70;;;13.00;99.90;;;;;;5053931;28;20451;-57
2023/07/18 03:18:23;;;;;;;10.70;5.07;;;13.00;99.90;;;;;;5053645;28;20478;-56
2023/07/18 03:20:50;;;;;;;6.50;4.20;;;13.00;99.90;;;;;;5054035;28;20472;-57
2023/07/18 03:23:17;;;;;;;7.23;5.10;;;13.00;99.90;;;;;;5054022;28;20448;-55
2023/07/18 03:25:44;;;;;;;8.70;5.13;;;13.10;99.90;;;;;;5053875;28;20455;-56
2023/07/18 03:28:11;;;;;;;6.20;4.43;;;13.10;99.90;;;;;;5054612;28;20441;-55
2023/07/18 03:30:40;;;;;;;7.97;4.43;;;13.10;99.90;;;;;;5053342;28;20844;-58
2023/07/18 03:33:08;;;;;;;9.10;5.93;;;13.10;99.90;;;;;;5053674;28;20543;-57
2023/07/18 03:35:35;;;;;;;9.83;5.80;;;13.10;99.90;;;;;;5053568;28;20972;-56
2023/07/18 03:38:02;;;;;;;8.23;6.10;;;13.20;99.90;;;;;;5053467;28;21185;-56
2023/07/18 03:40:29;;;;;;;6.93;5.57;;;13.20;99.90;;;;;;5053277;28;20482;-57
2023/07/18 03:42:56;;;;;;;8.47;5.07;;;13.20;99.90;;;;;;5053253;28;20440;-58
2023/07/18 03:45:23;;;;;;;7.27;4.97;;;13.30;99.90;;;;;;5053648;28;20442;-56
2023/07/18 03:47:50;;;;;;;7.77;5.43;;;13.30;99.90;;;;;;5053091;28;20452;-57
2023/07/18 03:50:18;;;;;;;6.83;6.13;;;13.40;99.90;;;;;;5053126;28;20467;-57
2023/07/18 03:52:45;;;;;;;7.07;5.27;;;13.40;99.90;;;;;;5053473;28;20450;-57
2023/07/18 03:55:12;;;;;;;5.93;5.30;;;13.50;99.90;;;;;;5053534;28;20500;-57
2023/07/18 03:57:39;;;;;;;8.17;5.60;;;13.60;99.90;;;;;;5053794;28;20483;-56
2023/07/18 04:00:13;;;;;;;14.10;7.17;;;13.70;99.90;;;;;;5053428;28;20479;-56
2023/07/18 04:02:40;;;;;;;9.60;6.50;;;13.80;99.90;;;;;;5052827;28;20467;-57
2023/07/18 04:05:07;;;;;;;8.10;5.43;;;13.90;99.90;;;;;;5052816;28;20825;-56
2023/07/18 04:07:35;;;;;;;6.87;5.23;;;14.10;99.90;;;;;;5053309;28;20445;-57
2023/07/18 04:11:58;;;;;;;9.77;4.80;;;14.70;99.90;;;;;;5090447;27;20545;-56
2023/07/18 04:14:25;;;;;;;6.90;4.97;;;15.10;99.90;;;;;;5090824;28;20441;-55
2023/07/18 04:16:52;;;;;;;9.43;4.43;;;15.40;99.90;;;;;;5090517;28;20796;-57
2023/07/18 04:19:19;;;;;;;5.83;4.27;;;15.50;99.90;;;;;;5090490;28;20466;-57
2023/07/18 04:21:46;;;;;;;9.30;5.70;;;15.50;99.90;;;;;;5090040;28;20504;-56
2023/07/18 04:24:13;;;;;;;6.37;4.60;;;15.40;99.90;;;;;;5090412;28;20434;-56
2023/07/18 04:26:39;;;;;;;8.80;4.80;;;15.40;99.90;;;;;;5090319;28;20451;-56
2023/07/18 04:29:07;;;;;;;5.83;4.60;;;15.30;99.90;;;;;;5090441;28;20466;-57
2023/07/18 04:31:34;;;;;;;6.70;4.53;;;15.20;99.90;;;;;;5090868;28;20477;-57
2023/07/18 04:34:01;;;;;;;7.37;4.97;;;15.10;99.90;;;;;;5090340;28;20447;-56
2023/07/18 04:36:28;;;;;;;10.13;5.27;;;15.00;99.90;;;;;;5090365;28;20442;-56
2023/07/18 04:38:55;;;;;;;14.30;5.60;;;14.90;99.90;;;;;;5090142;28;20940;-57
2023/07/18 04:41:21;;;;;;;7.97;5.73;;;14.90;99.90;;;;;;5090173;28;20439;-56
2023/07/18 04:43:48;;;;;;;7.23;5.10;;;15.00;99.90;;;;;;5089522;28;20798;-56
2023/07/18 04:46:16;;;;;;;10.83;5.03;;;15.20;99.90;;;;;;5090029;28;20446;-56
2023/07/18 04:48:43;;;;;;;11.00;5.50;;;15.40;99.90;;;;;;5089510;28;20482;-56
2023/07/18 04:51:10;;;;;;;9.90;3.90;;;15.80;99.90;;;;;;5089284;28;20853;-53
2023/07/18 04:53:37;;;;;;;6.17;4.10;;;16.30;99.90;;;;;;5089808;28;20951;-56
2023/07/18 04:56:06;;;;;;;12.20;4.03;;;16.80;99.90;;;;;;5089850;28;20495;-56
2023/07/18 04:58:33;;;;;;;8.07;3.83;;;16.90;99.90;;;;;;5089692;28;20519;-55
2023/07/18 05:01:02;;;;;;;5.97;4.13;;;17.10;99.90;;;;;;5089419;28;20892;-55
2023/07/18 05:03:30;;;;;;;6.23;3.90;;;17.30;99.90;;;;;;5090126;28;20452;-55
2023/07/18 05:05:57;;;;;;;6.93;4.60;;;17.40;99.90;;;;;;5089899;28;20536;-55
2023/07/18 05:08:24;;;;;;;8.03;3.70;;;17.50;99.90;;;;;;5089894;28;20441;-56
2023/07/18 05:10:51;;;;;;;9.90;4.27;;;17.50;99.90;;;;;;5089347;28;20559;-55
2023/07/18 05:13:18;;;;;;;8.90;3.90;;;17.70;99.90;;;;;;5089230;28;20441;-55
2023/07/18 05:15:44;;;;;;;5.37;3.60;;;18.00;99.90;;;;;;5089385;28;20443;-56
2023/07/18 05:18:11;;;;;;;7.13;3.60;;;18.10;99.90;;;;;;5089623;28;20438;-56
2023/07/18 05:20:39;;;;;;;6.10;3.73;;;18.10;99.90;;;;;;5089305;28;20955;-58
2023/07/18 05:23:06;;;;;;;10.13;4.23;;;18.20;99.90;;;;;;5077005;28;20968;-54
2023/07/18 05:25:33;;;;;;;6.20;3.53;;;18.10;99.90;;;;;;5076284;28;20526;-53
2023/07/18 05:28:00;;;;;;;10.63;4.40;;;18.10;99.90;;;;;;5076372;28;20453;-55
2023/07/18 05:30:27;;;;;;;4.50;3.40;;;18.20;99.90;;;;;;5076336;28;20475;-55
2023/07/18 05:32:54;;;;;;;9.13;3.57;;;18.30;99.90;;;;;;5075640;28;20795;-56
2023/07/18 05:35:21;;;;;;;6.97;3.43;;;18.20;99.90;;;;;;5076106;28;20557;-55
2023/07/18 05:37:49;;;;;;;7.07;4.40;;;18.30;99.90;;;;;;5075574;28;20447;-57
2023/07/18 05:40:16;;;;;;;7.63;4.40;;;18.30;99.90;;;;;;5075505;28;20463;-56
2023/07/18 05:42:44;;;;;;;6.47;3.60;;;18.50;99.90;;;;;;5075511;28;20439;-56
2023/07/18 05:45:11;;;;;;;9.43;3.90;;;18.60;99.90;;;;;;5075364;28;20448;-56
2023/07/18 05:47:38;;;;;;;5.47;3.30;;;18.60;99.90;;;;;;5075751;28;20463;-56
2023/07/18 05:50:06;;;;;;;7.07;3.80;;;18.70;99.50;;;;;;5075426;28;20459;-56
2023/07/18 05:52:33;;;;;;;6.60;4.57;;;18.80;99.00;;;;;;5075421;28;20534;-56
2023/07/18 05:55:02;;;;;;;7.57;4.40;;;18.80;98.40;;;;;;5075524;28;20443;-55
2023/07/18 05:57:29;;;;;;;6.60;3.90;;;18.90;98.10;;;;;;5075340;28;20534;-55
2023/07/18 05:59:56;;;;;;;3.63;3.30;;;19.00;98.20;;;;;;5075666;28;20467;-55
2023/07/18 06:02:22;;;;;;;8.40;3.97;;;19.20;97.80;;;;;;5075348;28;20448;-56
2023/07/18 06:04:49;;;;;;;9.60;4.20;;;19.40;96.70;;;;;;5075366;28;20467;-55
2023/07/18 06:07:16;;;;;;;6.30;3.90;;;19.50;96.10;;;;;;5074969;28;20448;-55
2023/07/18 06:09:43;;;;;;;5.30;3.30;;;19.60;95.50;;;;;;5074879;28;20983;-55
2023/07/18 06:12:13;;;;;;;6.50;3.63;;;19.70;95.20;;;;;;5075500;28;20551;-55
2023/07/18 06:14:40;;;;;;;5.00;3.50;;;19.80;94.80;;;;;;5075113;28;20448;-56
2023/07/18 06:17:07;;;;;;;6.83;2.90;;;20.10;94.10;;;;;;5074761;28;20443;-56
2023/07/18 06:19:34;;;;;;;6.60;3.77;;;20.20;93.10;;;;;;5074608;28;20471;-57
2023/07/18 06:22:00;;;;;;;4.97;3.30;;;20.30;92.20;;;;;;5074320;28;20495;-55
2023/07/18 06:24:27;;;;;;;6.90;3.20;;;20.30;91.60;;;;;;5074883;28;20483;-55
2023/07/18 06:26:54;;;;;;;5.00;3.40;;;20.30;91.00;;;;;;5074138;28;20443;-56
2023/07/18 06:29:22;;;;;;;5.70;3.50;;;20.30;90.30;;;;;;5074616;28;20490;-56
2023/07/18 06:31:49;;;;;;;6.90;3.47;;;20.20;90.00;;;;;;5074449;28;20482;-55
2023/07/18 06:34:17;;;;;;;4.53;3.03;;;20.00;89.70;;;;;;5073610;28;20448;-55
2023/07/18 06:36:45;;;;;;;7.60;3.60;;;19.90;89.10;;;;;;5074484;28;20448;-55
2023/07/18 06:39:13;;;;;;;4.60;3.40;;;19.90;89.00;;;;;;5074444;28;20517;-56
2023/07/18 06:41:41;;;;;;;3.77;2.77;;;19.80;89.10;;;;;;5074376;28;20470;-57
2023/07/18 06:44:07;;;;;;;6.20;3.30;;;19.80;87.60;;;;;;5074554;28;20450;-56
2023/07/18 06:46:36;;;;;;;7.03;3.23;;;19.90;86.90;;;;;;5074152;28;20999;-56
2023/07/18 06:49:02;;;;;;;6.80;3.40;;;19.80;85.90;;;;;;5073884;28;20469;-56
2023/07/18 06:51:29;;;;;;;10.90;3.37;;;19.60;85.90;;;;;;5073837;28;20479;-59
2023/07/18 06:53:56;;;;;;;7.60;3.23;;;19.50;86.40;;;;;;5074528;28;20439;-56
2023/07/18 06:56:24;;;;;;;9.20;3.10;;;19.40;87.10;;;;;;5074117;28;20497;-56
2023/07/18 06:58:51;;;;;;;6.33;2.60;;;19.40;87.80;;;;;;5073524;28;20447;-57
2023/07/18 07:01:18;;;;;;;5.20;2.70;;;19.50;87.80;;;;;;5073940;28;20532;-57
2023/07/18 07:03:46;;;;;;;8.13;2.50;;;19.60;87.10;;;;;;5073740;28;20446;-57
2023/07/18 07:06:13;;;;;;;5.57;2.40;;;19.70;86.50;;;;;;5074200;28;20446;-56
2023/07/18 07:08:40;;;;;;;5.47;2.30;;;19.60;85.00;;;;;;5073742;28;20446;-57
2023/07/18 07:11:08;;;;;;;6.63;2.67;;;19.60;84.80;;;;;;5073753;28;20495;-57
2023/07/18 07:13:36;;;;;;;7.40;2.87;;;19.70;84.70;;;;;;5073838;28;20443;-57
2023/07/18 07:16:03;;;;;;;4.53;2.30;;;19.90;83.90;;;;;;5075025;28;20448;-56
2023/07/18 07:18:30;;;;;;;5.83;2.00;;;20.10;83.60;;;;;;5074055;28;20455;-56
2023/07/18 07:20:58;;;;;;;4.10;1.80;;;20.30;81.90;;;;;;5073777;28;20477;-57
2023/07/18 07:23:25;;;;;;;6.50;2.10;;;20.40;81.00;;;;;;5074084;28;20948;-57
2023/07/18 07:25:52;;;;;;;5.00;1.70;;;20.50;79.20;;;;;;5074380;28;20447;-57
2023/07/18 07:28:19;;;;;;;6.03;1.97;;;20.50;77.80;;;;;;5073994;28;20428;-56
2023/07/18 07:30:46;;;;;;;4.97;2.13;;;20.40;76.20;;;;;;5073830;28;20835;-57
2023/07/18 07:33:12;;;;;;;2.60;1.97;;;20.40;75.30;;;;;;5073986;28;20439;-56
2023/07/18 07:35:39;;;;;;;3.17;1.67;;;20.30;74.10;;;;;;5073835;28;20941;-56
2023/07/18 07:38:08;;;;;;;3.63;1.47;;;20.20;73.60;;;;;;5074081;28;20439;-57
2023/07/18 07:40:34;;;;;;;4.97;1.90;;;20.30;73.30;;;;;;5073668;28;20494;-57
2023/07/18 07:43:01;;;;;;;4.00;1.83;;;20.40;73.10;;;;;;5074878;28;20450;-57
2023/07/18 07:45:28;;;;;;;3.53;1.63;;;20.50;72.60;;;;;;5073409;28;20542;-58
2023/07/18 07:47:55;;;;;;;3.03;1.83;;;20.60;71.40;;;;;;5073381;28;20506;-57
2023/07/18 07:50:22;;;;;;;2.60;1.17;;;20.60;70.30;;;;;;5073697;28;20517;-57
2023/07/18 07:52:49;;;;;;;3.80;1.60;;;20.60;69.50;;;;;;5056836;22;20525;-56
2023/07/18 07:55:18;;;;;;;4.40;1.70;;;20.50;68.70;;;;;;5034683;28;20480;-57
2023/07/18 07:57:45;;;;;;;6.10;2.20;;;20.50;68.70;;;;;;5034492;28;20456;-57
2023/07/18 08:00:13;;;;;;;3.33;1.70;;;20.50;69.00;;;;;;5035112;28;20532;-58
2023/07/18 08:02:40;;;;;;;2.70;1.50;;;20.80;69.00;;;;;;5034545;28;20987;-56
2023/07/18 08:05:08;;;;;;;3.90;1.87;;;20.90;67.70;;;;;;5035016;28;20452;-57
2023/07/18 08:07:35;;;;;;;4.47;2.10;;;20.90;67.10;;;;;;5034635;28;20441;-57
2023/07/18 08:10:02;;;;;;;3.50;1.67;;;20.90;66.90;;;;;;5034748;28;20507;-58
2023/07/18 08:12:30;;;;;;;1.90;1.60;;;20.90;66.50;;;;;;5034532;28;20481;-58
2023/07/18 08:14:57;;;;;;;3.20;1.60;;;20.90;66.50;;;;;;5034679;28;20449;-59
2023/07/18 08:17:24;;;;;;;9.93;2.40;;;20.90;65.30;;;;;;5034656;28;20820;-59
2023/07/18 08:19:51;;;;;;;4.20;1.57;;;21.00;65.20;;;;;;5034544;28;20484;-57
2023/07/18 08:22:18;;;;;;;2.60;1.50;;;21.10;64.70;;;;;;5034477;28;20467;-57
2023/07/18 08:24:45;;;;;;;5.17;1.47;;;21.10;63.80;;;;;;5035145;28;20517;-57
2023/07/18 08:27:12;;;;;;;4.77;2.17;;;21.20;63.10;;;;;;5034838;28;20449;-57
2023/07/18 08:29:41;;;;;;;2.70;1.53;;;21.30;62.70;;;;;;5034532;28;20485;-57
2023/07/18 08:32:08;;;;;;;3.33;1.70;;;21.30;62.60;;;;;;5035767;28;20485;-56
2023/07/18 08:34:35;;;;;;;2.50;1.57;;;21.50;62.70;;;;;;5036315;28;20460;-58
2023/07/18 08:37:05;;;;;;;3.90;1.93;;;21.60;62.40;;;;;;5034219;28;20452;-57
2023/07/18 08:39:32;;;;;;;4.53;1.60;;;21.70;62.10;;;;;;5034425;28;20489;-56
2023/07/18 08:42:00;;;;;;;3.30;1.70;;;21.80;61.20;;;;;;5034065;28;20457;-56
2023/07/18 08:44:27;;;;;;;3.33;1.50;;;21.70;60.20;;;;;;5034447;28;20445;-57
2023/07/18 08:46:56;;;;;;;4.20;1.50;;;21.80;60.00;;;;;;5034502;28;20445;-57
2023/07/18 08:49:27;;;;;;;3.80;1.47;;;21.80;59.60;;;;;;5034612;28;20445;-57
2023/07/18 08:51:54;;;;;;;4.47;2.10;;;21.80;59.50;;;;;;5033877;28;20991;-57
2023/07/18 08:54:21;;;;;;;4.03;1.93;;;21.90;59.40;;;;;;5035139;28;20445;-56
2023/07/18 08:56:49;;;;;;;5.07;2.03;;;22.00;59.40;;;;;;5035418;28;20446;-58
2023/07/18 08:59:18;;;;;;;5.87;1.87;;;22.00;59.40;;;;;;5038220;28;20452;-57
2023/07/18 09:01:48;;;;;;;4.93;1.60;;;22.10;59.10;;;;;;5038459;28;20465;-57
2023/07/18 09:04:16;;;;;;;2.90;1.77;;;22.20;58.80;;;;;;5038239;28;20445;-59
2023/07/18 09:06:50;;;;;;;3.10;1.47;;;22.20;58.70;;;;;;5038049;28;20526;-56
2023/07/18 09:09:21;;;;;;;5.63;1.60;;;22.40;58.70;;;;;;5038066;28;20474;-55
2023/07/18 09:11:57;;;;;;;4.00;2.03;;;22.70;58.40;;;;;;5037547;28;20485;-56
2023/07/18 09:14:26;;;;;;;4.37;2.10;;;22.90;57.70;;;;;;5037935;28;20440;-55
2023/07/18 09:16:54;;;;;;;5.33;1.70;;;23.00;57.10;;;;;;5038420;28;20449;-57
2023/07/18 09:19:37;;;;;;;6.53;1.70;;;23.10;56.80;;;;;;5038883;28;20497;-58
2023/07/18 09:22:04;;;;;;;4.20;2.00;;;23.30;56.50;;;;;;5038748;28;20826;-58
2023/07/18 09:24:31;;;;;;;4.83;2.23;;;23.40;55.90;;;;;;5038582;28;20452;-55
2023/07/18 09:26:58;;;;;;;3.17;1.53;;;23.50;55.70;;;;;;5038247;28;20460;-57
2023/07/18 09:29:25;;;;;;;2.10;1.37;;;23.60;55.30;;;;;;5037226;28;20524;-57
2023/07/18 09:31:52;;;;;;;4.50;1.53;;;23.60;54.50;;;;;;5037408;28;20484;-56
2023/07/18 09:34:19;;;;;;;1.73;1.37;;;23.60;53.90;;;;;;5037142;28;20445;-58
2023/07/18 09:36:57;;;;;;;2.43;1.40;;;23.40;53.90;;;;;;5038034;28;20450;-58
2023/07/18 09:39:25;;;;;;;2.87;1.63;;;23.40;53.90;;;;;;5038015;28;20487;-57
2023/07/18 09:41:52;;;;;;;4.10;1.87;;;23.60;53.90;;;;;;5037351;28;20516;-57
2023/07/18 09:44:19;;;;;;;2.80;1.30;;;24.00;53.30;;;;;;5037293;28;20821;-58
2023/07/18 09:46:46;;;;;;;3.40;1.30;;;24.20;51.80;;;;;;5037385;28;20447;-57
2023/07/18 09:49:14;;;;;;;2.50;1.50;;;24.20;51.30;;;;;;5037147;28;20449;-57
2023/07/18 09:51:47;;;;;;;3.63;1.20;;;24.20;51.40;;;;;;5036304;28;20485;-57
2023/07/18 09:54:16;;;;;;;3.40;1.67;;;24.30;51.10;;;;;;5037427;28;20521;-57
2023/07/18 09:56:45;;;;;;;1.87;1.33;;;24.50;50.60;;;;;;5037014;28;20449;-58
2023/07/18 09:59:12;;;;;;;3.57;1.73;;;24.70;50.00;;;;;;5037029;28;20445;-58
2023/07/18 10:01:39;;;;;;;1.77;1.40;;;24.90;49.40;;;;;;5037489;28;20484;-59
2023/07/18 10:04:06;;;;;;;3.57;1.33;;;25.10;48.70;;;;;;5037399;28;20449;-56
2023/07/18 10:06:33;;;;;;;2.00;1.30;;;25.50;48.60;;;;;;5037317;28;20449;-58
2023/07/18 10:09:02;;;;;;;3.60;1.40;;;25.80;48.00;;;;;;5037821;28;20450;-57
2023/07/18 10:11:30;;;;;;;2.13;1.30;;;26.00;47.20;;;;;;5038028;28;20475;-56
2023/07/18 10:14:17;;;;;;;2.10;1.63;;;26.00;46.60;;;;;;5038588;28;20451;-54
2023/07/18 10:16:53;;;;;;;3.27;1.80;;;25.90;46.60;;;;;;5035027;28;20820;-58
2023/07/18 10:19:24;;;;;;;3.33;1.40;;;26.00;46.40;;;;;;5038851;28;20432;-56
2023/07/18 10:21:53;;;;;;;3.70;1.37;;;26.10;46.00;;;;;;5037032;28;20515;-58
2023/07/18 10:24:28;;;;;;;4.13;1.50;;;25.90;45.90;;;;;;5037515;28;20524;-59
2023/07/18 10:27:00;;;;;;;1.83;1.53;;;25.50;46.20;;;;;;5036303;28;21033;-57
2023/07/18 10:29:32;;;;;;;2.57;1.27;;;25.20;46.50;;;;;;5036572;28;20434;-57
2023/07/18 10:32:00;;;;;;;2.97;1.60;;;25.20;47.00;;;;;;5036910;28;20496;-56
2023/07/18 10:34:27;;;;;;;4.20;1.90;;;25.40;46.90;;;;;;5036704;28;20445;-58
2023/07/18 10:36:56;;;;;;;2.90;1.73;;;25.50;46.50;;;;;;5036750;28;20453;-56
2023/07/18 10:39:38;;;;;;;3.70;1.70;;;25.50;46.30;;;;;;5036685;28;20441;-56
2023/07/18 10:42:08;;;;;;;2.83;1.70;;;25.40;47.10;;;;;;5036837;28;20469;-57
2023/07/18 10:44:36;;;;;;;3.47;1.40;;;25.20;46.90;;;;;;5036683;28;20799;-57
2023/07/18 10:47:15;;;;;;;3.20;1.67;;;25.20;47.00;;;;;;5036574;28;20499;-57
2023/07/18 10:49:43;;;;;;;1.60;1.33;;;25.50;46.40;;;;;;5036424;28;20436;-57
2023/07/18 10:52:10;;;;;;;3.13;1.33;;;25.90;45.50;;;;;;5036814;28;20496;-59
2023/07/18 10:54:37;;;;;;;1.30;1.20;;;26.50;45.30;;;;;;5037280;28;20532;-56
2023/07/18 10:57:04;;;;;;;2.73;1.60;;;26.90;43.90;;;;;;5038314;28;20452;-57
2023/07/18 10:59:33;;;;;;;2.17;1.07;;;27.30;43.40;;;;;;5037157;28;20897;-57
2023/07/18 11:02:00;;;;;;;3.00;1.50;;;27.20;43.20;;;;;;5037697;28;20476;-58
2023/07/18 11:04:28;;;;;;;3.10;1.83;;;27.00;43.30;;;;;;5038350;28;20449;-59
2023/07/18 11:06:56;;;;;;;2.70;1.73;;;26.90;43.20;;;;;;5037223;28;20457;-57
2023/07/18 11:09:23;;;;;;;1.60;1.20;;;27.00;43.20;;;;;;5037916;28;20449;-56
2023/07/18 11:11:50;;;;;;;1.60;1.13;;;27.20;42.70;;;;;;5037312;28;20465;-57
2023/07/18 11:14:18;;;;;;;3.83;1.27;;;27.10;42.40;;;;;;5037515;28;20445;-58
2023/07/18 11:16:46;;;;;;;2.27;1.60;;;27.00;42.60;;;;;;5037713;28;20576;-58
2023/07/18 11:19:15;;;;;;;3.07;1.50;;;26.80;42.70;;;;;;5037532;28;20441;-58
2023/07/18 11:21:43;;;;;;;2.87;1.43;;;26.60;42.70;;;;;;5038361;28;21023;-57
2023/07/18 11:24:10;;;;;;;2.53;1.60;;;26.60;42.70;;;;;;5038739;28;20464;-57
2023/07/18 11:26:36;;;;;;;2.53;1.80;;;26.60;42.60;;;;;;5036683;28;20453;-57
2023/07/18 11:29:05;;;;;;;2.80;1.40;;;26.50;42.40;;;;;;5037470;28;20441;-57
2023/07/18 11:31:39;;;;;;;1.50;1.30;;;26.20;42.60;;;;;;5036253;28;20476;-58
2023/07/18 11:34:07;;;;;;;1.77;1.30;;;26.20;43.00;;;;;;5036055;28;20851;-57
2023/07/18 11:36:36;;;;;;;2.13;1.70;;;26.30;42.90;;;;;;5036870;28;20449;-57
2023/07/18 11:39:04;;;;;;;3.93;1.13;;;26.50;42.90;;;;;;5036252;28;20503;-58
2023/07/18 11:41:35;;;;;;;3.07;1.40;;;26.70;42.50;;;;;;5036056;28;20465;-57
2023/07/18 11:44:02;;;;;;;6.23;1.80;;;27.00;42.20;;;;;;5036834;28;20450;-59
2023/07/18 11:46:36;;;;;;;3.20;1.20;;;27.40;41.60;;;;;;5037250;28;20446;-58
2023/07/18 11:49:03;;;;;;;2.90;1.57;;;27.80;40.50;;;;;;5038939;28;20433;-57
2023/07/18 11:51:32;;;;;;;2.33;1.30;;;28.10;39.90;;;;;;5038228;28;20484;-58
2023/07/18 11:54:01;;;;;;;1.90;1.60;;;28.30;39.30;;;;;;5038471;28;20487;-58
2023/07/18 11:56:28;;;;;;;2.33;1.37;;;28.40;38.60;;;;;;5039238;28;20441;-58
2023/07/18 11:58:55;;;;;;;2.27;1.30;;;28.50;38.60;;;;;;5038520;28;20455;-57
2023/07/18 12:01:22;;;;;;;2.13;1.23;;;28.60;38.40;;;;;;5038283;28;20985;-58
2023/07/18 12:03:51;;;;;;;2.90;1.50;;;28.20;38.90;;;;;;5038060;28;20536;-58
2023/07/18 12:06:19;;;;;;;2.93;1.70;;;27.80;38.90;;;;;;5038665;28;20809;-58
2023/07/18 12:08:47;;;;;;;3.20;1.97;;;27.30;39.50;;;;;;5039794;28;20456;-58
2023/07/18 12:11:14;;;;;;;3.33;1.70;;;26.80;40.10;;;;;;5039327;28;20470;-58
2023/07/18 12:13:41;;;;;;;3.37;1.70;;;26.50;40.80;;;;;;5039119;28;20569;-57
2023/07/18 12:16:08;;;;;;;4.20;2.03;;;26.50;41.10;;;;;;5037297;28;20540;-55
2023/07/18 12:18:36;;;;;;;2.03;1.47;;;26.60;40.80;;;;;;5036861;28;20533;-57
2023/07/18 12:21:03;;;;;;;4.77;1.80;;;26.70;40.80;;;;;;5036892;28;20445;-57
2023/07/18 12:23:30;;;;;;;3.07;1.90;;;26.80;40.60;;;;;;5036524;28;20521;-58
2023/07/18 12:25:58;;;;;;;2.83;1.50;;;27.30;40.10;;;;;;5036469;28;20513;-58
2023/07/18 12:28:25;;;;;;;6.67;1.50;;;28.50;38.80;;;;;;5036238;28;20452;-56
2023/07/18 12:30:51;;;;;;;4.40;1.50;;;29.60;37.20;;;;;;5036852;28;20445;-56
2023/07/18 12:33:18;;;;;;;2.30;1.37;;;30.20;35.50;;;;;;5038237;28;20477;-57
2023/07/18 12:35:45;;;;;;;3.20;1.13;;;30.20;34.50;;;;;;5039194;28;20467;-59
2023/07/18 12:38:12;;;;;;;3.30;1.40;;;30.10;34.10;;;;;;5039486;28;20516;-56
2023/07/18 12:40:39;;;;;;;2.10;1.57;;;30.10;33.90;;;;;;5039869;28;20513;-56
2023/07/18 12:43:07;;;;;;;1.50;0.97;;;30.00;33.60;;;;;;5039466;28;20520;-57
2023/07/18 12:45:34;;;;;;;2.40;1.43;;;29.80;34.00;;;;;;5038802;28;20539;-56
2023/07/18 12:48:01;;;;;;;2.00;1.50;;;29.40;34.50;;;;;;5038349;28;20455;-57
2023/07/18 12:50:29;;;;;;;3.93;1.80;;;29.00;35.20;;;;;;5037804;28;20446;-57
2023/07/18 12:52:58;;;;;;;3.50;2.30;;;28.60;35.90;;;;;;5038352;28;20489;-60
2023/07/18 12:55:25;;;;;;;3.20;1.30;;;28.40;36.40;;;;;;5038916;28;20445;-56
2023/07/18 12:57:52;;;;;;;3.30;1.40;;;28.20;36.70;;;;;;5038597;28;20512;-58
2023/07/18 13:00:20;;;;;;;3.70;1.60;;;28.00;37.30;;;;;;5038580;28;20437;-57
2023/07/18 13:02:47;;;;;;;1.83;1.33;;;28.00;37.50;;;;;;5038601;28;20466;-58
2023/07/18 13:05:14;;;;;;;2.43;1.50;;;27.80;37.50;;;;;;5038294;28;20456;-58
2023/07/18 13:07:41;;;;;;;2.87;1.67;;;27.70;37.60;;;;;;5038328;28;20822;-59
2023/07/18 13:10:08;;;;;;;3.93;1.40;;;27.70;37.50;;;;;;5038411;28;20826;-58
2023/07/18 13:12:35;;;;;;;2.57;1.73;;;27.90;37.40;;;;;;5038717;28;20468;-59
2023/07/18 13:15:02;;;;;;;3.30;1.43;;;28.00;37.10;;;;;;5039319;28;20453;-57
2023/07/18 13:17:31;;;;;;;3.23;1.40;;;28.10;36.30;;;;;;5039961;28;20445;-57
2023/07/18 13:19:58;;;;;;;2.40;1.30;;;28.00;35.60;;;;;;5040703;28;20943;-58
2023/07/18 13:22:26;;;;;;;2.90;1.50;;;27.80;35.00;;;;;;5040198;28;20511;-58
2023/07/18 13:24:52;;;;;;;2.07;1.30;;;27.40;35.50;;;;;;5040421;28;20495;-58
2023/07/18 13:27:20;;;;;;;3.13;1.30;;;27.30;36.30;;;;;;5042376;28;20829;-57
2023/07/18 13:29:47;;;;;;;2.60;1.20;;;27.40;36.40;;;;;;5043593;28;20461;-58
2023/07/18 13:32:14;;;;;;;2.47;1.50;;;27.10;36.20;;;;;;5043027;28;20507;-57
2023/07/18 13:34:42;;;;;;;2.20;1.67;;;26.70;36.20;;;;;;5042006;28;20922;-56
2023/07/18 13:37:10;;;;;;;2.13;1.40;;;26.50;36.50;;;;;;5041580;28;20441;-56
2023/07/18 13:39:37;;;;;;;3.27;1.27;;;26.40;36.80;;;;;;5040029;28;20943;-59
2023/07/18 13:42:06;;;;;;;2.47;1.40;;;26.50;36.90;;;;;;5039046;28;20477;-57
2023/07/18 13:44:33;;;;;;;2.20;2.00;;;26.60;36.90;;;;;;5039647;28;20441;-56
2023/07/18 13:47:00;;;;;;;2.30;1.83;;;26.80;36.80;;;;;;5039216;28;20533;-60
2023/07/18 13:49:27;;;;;;;2.67;1.40;;;26.90;36.70;;;;;;5039127;28;20449;-57
2023/07/18 13:51:55;;;;;;;2.60;2.00;;;26.90;36.70;;;;;;5038406;28;20481;-56
2023/07/18 13:54:22;;;;;;;2.73;1.50;;;26.90;37.40;;;;;;5037431;28;20489;-56
2023/07/18 13:56:49;;;;;;;3.20;2.00;;;26.80;36.70;;;;;;5036775;28;20827;-58
2023/07/18 13:59:15;;;;;;;1.77;1.07;;;26.80;36.80;;;;;;5037118;28;20445;-57
2023/07/18 14:01:42;;;;;;;2.83;1.73;;;26.90;36.50;;;;;;5036734;28;20473;-57
2023/07/18 14:04:09;;;;;;;1.97;1.13;;;27.10;36.30;;;;;;5037199;28;20459;-56
2023/07/18 14:06:36;;;;;;;2.80;1.30;;;27.40;35.80;;;;;;5036963;28;20452;-58
2023/07/18 14:09:04;;;;;;;2.73;1.30;;;27.30;35.40;;;;;;5037107;28;20456;-58